Palm Coast, Florida
Current Conditions -  °F | °C
As of 4:50 PM on Monday 20 Oct 2014 (Local Time) from KXFL Reporting Station
Clear Clear  
Wind Chill: 79°   Ceiling: Unl
Heat Index: 81°   Visibility: 7mi
Dew Point: 66°   Wind: 8mph
Humidity: 65%   Direction: 100°E
Pressure: 29.98"   Gusts: NA
Location:  29.57°N, 81.19°W
Report Text: KXFL 202050Z 10007KT 7SM CLR 26/19 A2998
Loading
Personal Weather Stations






























Interactive Weather Map
Tropical Storm Tracking
New forecast layout! Learn more

10-Day Weather Forecast

Advertisements
Track Severe Weather on mobile